X  SluitMETAR luchtvaart weer gegevens      EBAW Antwerp International (Deurne)

Temperatuur

17°C Temperatuur

14°C Dauwpunt

83% Vochtigheid



Wind

 8 KM/U

 5 MPH

 2 M/S

 4 KTS



20°
Noord Noord
Oost
Huidig weer

Wat bewolking Wat bewolking
Luchtdruk 1020.92 (hPa) - 30.15 (in)
Zicht 6.2 (mi) - 10 (km)
Vliegveld
Vliegveld code EBAW

Locatie Antwerp International (Deurne) 14 (km)

Metar:
EBAW 161620Z 02004KT 340V050 9999 FEW011 BKN035 17/14 Q1021 TEMPO SCT010 BKN014

Tijd: 16-09-2019 18:20